<?xml version="1.0" encoding="UTF-8" standalone="no" ?>
<gpx xmlns="http://www.topografix.com/GPX/1/1" xmlns:xsi="http://www.w3.org/2001/XMLSchema-instance" xsi:schemaLocation="http://www.topografix.com/GPX/1/1 http://www.topografix.com/GPX/1/1/gpx.xsd" version="1.1" creator="VisuGPX - https://www.visugpx.com">
  <metadata>
    <name>Col d'Ornon</name>
    <desc><![CDATA[La grande classique de Saint Sorlin en VTTae. Tout y est réuni: altitude (col à 2016m), alpages, panorama (Aiguilles d'Arves, cime des Torches, Etendard...), patrimoine (Chapelle du XVIIème siècle, Hameau des Vachers) et single de 3km!]]></desc>
  </metadata>
  <wpt lat="45.21879" lon="6.23183">
    <ele>1480</ele>
    <name><![CDATA[Parking Plan des moulins au bas du village]]></name>
  </wpt>
  <wpt lat="45.21912" lon="6.23212">
    <ele>1483</ele>
    <name><![CDATA[Sentier de découverte]]></name>
  </wpt>
  <wpt lat="45.21746" lon="6.24602">
    <ele>1472</ele>
    <name><![CDATA[Fromagerie (COOP) de Saint Sorlin]]></name>
  </wpt>
  <wpt lat="45.21502" lon="6.24984">
    <ele>1458</ele>
    <name><![CDATA[Tourner à droite à cluny]]></name>
  </wpt>
  <wpt lat="45.18211" lon="6.23184">
    <ele>2014</ele>
    <name><![CDATA[Col d'Ornon 2016m]]></name>
  </wpt>
  <wpt lat="45.20024" lon="6.22674">
    <ele>1638</ele>
    <name><![CDATA[Chapelle Notre Dame de la Vie]]></name>
  </wpt>
  <wpt lat="45.20981" lon="6.22723">
    <ele>1626</ele>
    <name><![CDATA[Croix de la Troche]]></name>
  </wpt>
  <wpt lat="45.21881" lon="6.23183">
    <ele>1480</ele>
    <name><![CDATA[Parking Plan des moulins au bas du village]]></name>
  </wpt>
  <trk>
    <name><![CDATA[Col d'Ornon]]></name>
    <extensions>
      <line xmlns="http://www.topografix.com/GPX/gpx_style/0/2">
        <color>0000FF</color>
        <opacity>1</opacity>
        <width>4</width>
      </line>
    </extensions>
    <trkseg>
      <trkpt lat="45.21879" lon="6.23183">
        <ele>1480</ele>
        <time>2020-06-10T19:42:37+02:00</time>
      </trkpt>
      <trkpt lat="45.21912" lon="6.23212">
        <ele>1483</ele>
        <time>2020-06-10T19:42:42+02:00</time>
      </trkpt>
      <trkpt lat="45.21921" lon="6.23275">
        <ele>1483</ele>
        <time>2020-06-10T19:42:47+02:00</time>
      </trkpt>
      <trkpt lat="45.2192" lon="6.23319">
        <ele>1481</ele>
        <time>2020-06-10T19:42:52+02:00</time>
      </trkpt>
      <trkpt lat="45.21924" lon="6.23387">
        <ele>1481</ele>
        <time>2020-06-10T19:42:57+02:00</time>
      </trkpt>
      <trkpt lat="45.21917" lon="6.23492">
        <ele>1480</ele>
        <time>2020-06-10T19:43:02+02:00</time>
      </trkpt>
      <trkpt lat="45.21918" lon="6.23587">
        <ele>1479</ele>
        <time>2020-06-10T19:43:07+02:00</time>
      </trkpt>
      <trkpt lat="45.21908" lon="6.23644">
        <ele>1479</ele>
        <time>2020-06-10T19:43:12+02:00</time>
      </trkpt>
      <trkpt lat="45.21893" lon="6.23697">
        <ele>1478</ele>
        <time>2020-06-10T19:43:17+02:00</time>
      </trkpt>
      <trkpt lat="45.21866" lon="6.23783">
        <ele>1473</ele>
        <time>2020-06-10T19:43:22+02:00</time>
      </trkpt>
      <trkpt lat="45.21872" lon="6.23848">
        <ele>1471</ele>
        <time>2020-06-10T19:43:27+02:00</time>
      </trkpt>
      <trkpt lat="45.21887" lon="6.23904">
        <ele>1472</ele>
        <time>2020-06-10T19:43:32+02:00</time>
      </trkpt>
      <trkpt lat="45.2187" lon="6.24002">
        <ele>1470</ele>
        <time>2020-06-10T19:43:37+02:00</time>
      </trkpt>
      <trkpt lat="45.21869" lon="6.24098">
        <ele>1473</ele>
        <time>2020-06-10T19:43:42+02:00</time>
      </trkpt>
      <trkpt lat="45.21835" lon="6.24151">
        <ele>1471</ele>
        <time>2020-06-10T19:43:47+02:00</time>
      </trkpt>
      <trkpt lat="45.21782" lon="6.24167">
        <ele>1470</ele>
        <time>2020-06-10T19:43:52+02:00</time>
      </trkpt>
      <trkpt lat="45.21754" lon="6.24219">
        <ele>1468</ele>
        <time>2020-06-10T19:43:57+02:00</time>
      </trkpt>
      <trkpt lat="45.21706" lon="6.24275">
        <ele>1462</ele>
        <time>2020-06-10T19:44:02+02:00</time>
      </trkpt>
      <trkpt lat="45.2172" lon="6.24487">
        <ele>1470</ele>
        <time>2020-06-10T19:44:07+02:00</time>
      </trkpt>
      <trkpt lat="45.21746" lon="6.24602">
        <ele>1472</ele>
        <time>2020-06-10T19:44:12+02:00</time>
      </trkpt>
      <trkpt lat="45.21676" lon="6.24746">
        <ele>1464</ele>
        <time>2020-06-10T19:44:17+02:00</time>
      </trkpt>
      <trkpt lat="45.21605" lon="6.24836">
        <ele>1465</ele>
        <time>2020-06-10T19:44:22+02:00</time>
      </trkpt>
      <trkpt lat="45.21528" lon="6.24905">
        <ele>1460</ele>
        <time>2020-06-10T19:44:27+02:00</time>
      </trkpt>
      <trkpt lat="45.21502" lon="6.24984">
        <ele>1458</ele>
        <time>2020-06-10T19:44:32+02:00</time>
      </trkpt>
      <trkpt lat="45.21482" lon="6.24984">
        <ele>1453</ele>
        <time>2020-06-10T19:44:37+02:00</time>
      </trkpt>
      <trkpt lat="45.21451" lon="6.24967">
        <ele>1445</ele>
        <time>2020-06-10T19:44:42+02:00</time>
      </trkpt>
      <trkpt lat="45.21446" lon="6.24935">
        <ele>1442</ele>
        <time>2020-06-10T19:44:47+02:00</time>
      </trkpt>
      <trkpt lat="45.21446" lon="6.24876">
        <ele>1442</ele>
        <time>2020-06-10T19:44:52+02:00</time>
      </trkpt>
      <trkpt lat="45.21396" lon="6.24848">
        <ele>1450</ele>
        <time>2020-06-10T19:44:57+02:00</time>
      </trkpt>
      <trkpt lat="45.21378" lon="6.24828">
        <ele>1454</ele>
        <time>2020-06-10T19:45:02+02:00</time>
      </trkpt>
      <trkpt lat="45.21354" lon="6.24802">
        <ele>1460</ele>
        <time>2020-06-10T19:45:07+02:00</time>
      </trkpt>
      <trkpt lat="45.21346" lon="6.24781">
        <ele>1463</ele>
        <time>2020-06-10T19:45:12+02:00</time>
      </trkpt>
      <trkpt lat="45.21337" lon="6.24804">
        <ele>1466</ele>
        <time>2020-06-10T19:45:17+02:00</time>
      </trkpt>
      <trkpt lat="45.21325" lon="6.24783">
        <ele>1470</ele>
        <time>2020-06-10T19:45:22+02:00</time>
      </trkpt>
      <trkpt lat="45.2132" lon="6.24787">
        <ele>1472</ele>
        <time>2020-06-10T19:45:27+02:00</time>
      </trkpt>
      <trkpt lat="45.21262" lon="6.2475">
        <ele>1493</ele>
        <time>2020-06-10T19:45:32+02:00</time>
      </trkpt>
      <trkpt lat="45.21261" lon="6.24763">
        <ele>1493</ele>
        <time>2020-06-10T19:45:37+02:00</time>
      </trkpt>
      <trkpt lat="45.21249" lon="6.24797">
        <ele>1495</ele>
        <time>2020-06-10T19:45:42+02:00</time>
      </trkpt>
      <trkpt lat="45.2123" lon="6.2486">
        <ele>1502</ele>
        <time>2020-06-10T19:45:47+02:00</time>
      </trkpt>
      <trkpt lat="45.21199" lon="6.24913">
        <ele>1508</ele>
        <time>2020-06-10T19:45:52+02:00</time>
      </trkpt>
      <trkpt lat="45.21184" lon="6.24929">
        <ele>1511</ele>
        <time>2020-06-10T19:45:57+02:00</time>
      </trkpt>
      <trkpt lat="45.21163" lon="6.2498">
        <ele>1510</ele>
        <time>2020-06-10T19:46:02+02:00</time>
      </trkpt>
      <trkpt lat="45.21159" lon="6.25065">
        <ele>1503</ele>
        <time>2020-06-10T19:46:07+02:00</time>
      </trkpt>
      <trkpt lat="45.21135" lon="6.25149">
        <ele>1510</ele>
        <time>2020-06-10T19:46:12+02:00</time>
      </trkpt>
      <trkpt lat="45.21135" lon="6.25178">
        <ele>1507</ele>
        <time>2020-06-10T19:46:17+02:00</time>
      </trkpt>
      <trkpt lat="45.21126" lon="6.25215">
        <ele>1508</ele>
        <time>2020-06-10T19:46:22+02:00</time>
      </trkpt>
      <trkpt lat="45.21122" lon="6.25324">
        <ele>1506</ele>
        <time>2020-06-10T19:46:27+02:00</time>
      </trkpt>
      <trkpt lat="45.21107" lon="6.25372">
        <ele>1504</ele>
        <time>2020-06-10T19:46:32+02:00</time>
      </trkpt>
      <trkpt lat="45.21062" lon="6.25404">
        <ele>1500</ele>
        <time>2020-06-10T19:46:37+02:00</time>
      </trkpt>
      <trkpt lat="45.21039" lon="6.25435">
        <ele>1501</ele>
        <time>2020-06-10T19:46:42+02:00</time>
      </trkpt>
      <trkpt lat="45.21043" lon="6.25457">
        <ele>1495</ele>
        <time>2020-06-10T19:46:47+02:00</time>
      </trkpt>
      <trkpt lat="45.20983" lon="6.25489">
        <ele>1497</ele>
        <time>2020-06-10T19:46:52+02:00</time>
      </trkpt>
      <trkpt lat="45.20967" lon="6.25491">
        <ele>1500</ele>
        <time>2020-06-10T19:46:57+02:00</time>
      </trkpt>
      <trkpt lat="45.20952" lon="6.25519">
        <ele>1496</ele>
        <time>2020-06-10T19:47:02+02:00</time>
      </trkpt>
      <trkpt lat="45.20891" lon="6.25565">
        <ele>1503</ele>
        <time>2020-06-10T19:47:07+02:00</time>
      </trkpt>
      <trkpt lat="45.20868" lon="6.25576">
        <ele>1507</ele>
        <time>2020-06-10T19:47:12+02:00</time>
      </trkpt>
      <trkpt lat="45.20853" lon="6.256">
        <ele>1507</ele>
        <time>2020-06-10T19:47:17+02:00</time>
      </trkpt>
      <trkpt lat="45.20833" lon="6.25618">
        <ele>1508</ele>
        <time>2020-06-10T19:47:22+02:00</time>
      </trkpt>
      <trkpt lat="45.20809" lon="6.2564">
        <ele>1506</ele>
        <time>2020-06-10T19:47:27+02:00</time>
      </trkpt>
      <trkpt lat="45.20783" lon="6.25652">
        <ele>1509</ele>
        <time>2020-06-10T19:47:32+02:00</time>
      </trkpt>
      <trkpt lat="45.20766" lon="6.25668">
        <ele>1510</ele>
        <time>2020-06-10T19:47:37+02:00</time>
      </trkpt>
      <trkpt lat="45.20742" lon="6.25675">
        <ele>1518</ele>
        <time>2020-06-10T19:47:42+02:00</time>
      </trkpt>
      <trkpt lat="45.20732" lon="6.25695">
        <ele>1516</ele>
        <time>2020-06-10T19:47:47+02:00</time>
      </trkpt>
      <trkpt lat="45.20708" lon="6.25749">
        <ele>1515</ele>
        <time>2020-06-10T19:47:52+02:00</time>
      </trkpt>
      <trkpt lat="45.20687" lon="6.25781">
        <ele>1516</ele>
        <time>2020-06-10T19:47:57+02:00</time>
      </trkpt>
      <trkpt lat="45.20657" lon="6.2579">
        <ele>1520</ele>
        <time>2020-06-10T19:48:02+02:00</time>
      </trkpt>
      <trkpt lat="45.20624" lon="6.25764">
        <ele>1523</ele>
        <time>2020-06-10T19:48:07+02:00</time>
      </trkpt>
      <trkpt lat="45.20603" lon="6.25726">
        <ele>1526</ele>
        <time>2020-06-10T19:48:12+02:00</time>
      </trkpt>
      <trkpt lat="45.20553" lon="6.25692">
        <ele>1523</ele>
        <time>2020-06-10T19:48:17+02:00</time>
      </trkpt>
      <trkpt lat="45.20346" lon="6.25553">
        <ele>1499</ele>
        <time>2020-06-10T19:48:22+02:00</time>
      </trkpt>
      <trkpt lat="45.20338" lon="6.25515">
        <ele>1504</ele>
        <time>2020-06-10T19:48:27+02:00</time>
      </trkpt>
      <trkpt lat="45.20296" lon="6.25479">
        <ele>1510</ele>
        <time>2020-06-10T19:48:32+02:00</time>
      </trkpt>
      <trkpt lat="45.20263" lon="6.25427">
        <ele>1517</ele>
        <time>2020-06-10T19:48:37+02:00</time>
      </trkpt>
      <trkpt lat="45.20245" lon="6.25358">
        <ele>1529</ele>
        <time>2020-06-10T19:48:42+02:00</time>
      </trkpt>
      <trkpt lat="45.20213" lon="6.253">
        <ele>1538</ele>
        <time>2020-06-10T19:48:47+02:00</time>
      </trkpt>
      <trkpt lat="45.20199" lon="6.25263">
        <ele>1547</ele>
        <time>2020-06-10T19:48:52+02:00</time>
      </trkpt>
      <trkpt lat="45.2013" lon="6.25176">
        <ele>1562</ele>
        <time>2020-06-10T19:48:57+02:00</time>
      </trkpt>
      <trkpt lat="45.20123" lon="6.25155">
        <ele>1565</ele>
        <time>2020-06-10T19:49:02+02:00</time>
      </trkpt>
      <trkpt lat="45.20127" lon="6.25138">
        <ele>1569</ele>
        <time>2020-06-10T19:49:07+02:00</time>
      </trkpt>
      <trkpt lat="45.20113" lon="6.2511">
        <ele>1568</ele>
        <time>2020-06-10T19:49:12+02:00</time>
      </trkpt>
      <trkpt lat="45.20108" lon="6.25063">
        <ele>1578</ele>
        <time>2020-06-10T19:49:17+02:00</time>
      </trkpt>
      <trkpt lat="45.20093" lon="6.25055">
        <ele>1580</ele>
        <time>2020-06-10T19:49:22+02:00</time>
      </trkpt>
      <trkpt lat="45.20076" lon="6.25056">
        <ele>1578</ele>
        <time>2020-06-10T19:49:27+02:00</time>
      </trkpt>
      <trkpt lat="45.20034" lon="6.2501">
        <ele>1590</ele>
        <time>2020-06-10T19:49:32+02:00</time>
      </trkpt>
      <trkpt lat="45.20011" lon="6.24968">
        <ele>1601</ele>
        <time>2020-06-10T19:49:37+02:00</time>
      </trkpt>
      <trkpt lat="45.19978" lon="6.24934">
        <ele>1611</ele>
        <time>2020-06-10T19:49:42+02:00</time>
      </trkpt>
      <trkpt lat="45.19953" lon="6.24917">
        <ele>1615</ele>
        <time>2020-06-10T19:49:47+02:00</time>
      </trkpt>
      <trkpt lat="45.19931" lon="6.24894">
        <ele>1622</ele>
        <time>2020-06-10T19:49:52+02:00</time>
      </trkpt>
      <trkpt lat="45.19907" lon="6.24888">
        <ele>1622</ele>
        <time>2020-06-10T19:49:57+02:00</time>
      </trkpt>
      <trkpt lat="45.19898" lon="6.24866">
        <ele>1630</ele>
        <time>2020-06-10T19:50:02+02:00</time>
      </trkpt>
      <trkpt lat="45.19879" lon="6.24874">
        <ele>1627</ele>
        <time>2020-06-10T19:50:07+02:00</time>
      </trkpt>
      <trkpt lat="45.19843" lon="6.24851">
        <ele>1641</ele>
        <time>2020-06-10T19:50:12+02:00</time>
      </trkpt>
      <trkpt lat="45.19795" lon="6.24839">
        <ele>1647</ele>
        <time>2020-06-10T19:50:17+02:00</time>
      </trkpt>
      <trkpt lat="45.19734" lon="6.24819">
        <ele>1647</ele>
        <time>2020-06-10T19:50:22+02:00</time>
      </trkpt>
      <trkpt lat="45.1968" lon="6.24791">
        <ele>1648</ele>
        <time>2020-06-10T19:50:27+02:00</time>
      </trkpt>
      <trkpt lat="45.19632" lon="6.24781">
        <ele>1647</ele>
        <time>2020-06-10T19:50:32+02:00</time>
      </trkpt>
      <trkpt lat="45.1961" lon="6.24711">
        <ele>1664</ele>
        <time>2020-06-10T19:50:37+02:00</time>
      </trkpt>
      <trkpt lat="45.19563" lon="6.24672">
        <ele>1672</ele>
        <time>2020-06-10T19:50:42+02:00</time>
      </trkpt>
      <trkpt lat="45.19462" lon="6.24448">
        <ele>1698</ele>
        <time>2020-06-10T19:50:47+02:00</time>
      </trkpt>
      <trkpt lat="45.19408" lon="6.24417">
        <ele>1703</ele>
        <time>2020-06-10T19:50:52+02:00</time>
      </trkpt>
      <trkpt lat="45.19368" lon="6.24353">
        <ele>1715</ele>
        <time>2020-06-10T19:50:57+02:00</time>
      </trkpt>
      <trkpt lat="45.1936" lon="6.24341">
        <ele>1718</ele>
        <time>2020-06-10T19:51:02+02:00</time>
      </trkpt>
      <trkpt lat="45.19329" lon="6.24332">
        <ele>1722</ele>
        <time>2020-06-10T19:51:07+02:00</time>
      </trkpt>
      <trkpt lat="45.19308" lon="6.24291">
        <ele>1738</ele>
        <time>2020-06-10T19:51:12+02:00</time>
      </trkpt>
      <trkpt lat="45.19241" lon="6.24288">
        <ele>1755</ele>
        <time>2020-06-10T19:51:17+02:00</time>
      </trkpt>
      <trkpt lat="45.19213" lon="6.2425">
        <ele>1759</ele>
        <time>2020-06-10T19:51:22+02:00</time>
      </trkpt>
      <trkpt lat="45.19175" lon="6.24215">
        <ele>1765</ele>
        <time>2020-06-10T19:51:27+02:00</time>
      </trkpt>
      <trkpt lat="45.19135" lon="6.24148">
        <ele>1784</ele>
        <time>2020-06-10T19:51:32+02:00</time>
      </trkpt>
      <trkpt lat="45.19135" lon="6.24114">
        <ele>1793</ele>
        <time>2020-06-10T19:51:37+02:00</time>
      </trkpt>
      <trkpt lat="45.19104" lon="6.2407">
        <ele>1802</ele>
        <time>2020-06-10T19:51:42+02:00</time>
      </trkpt>
      <trkpt lat="45.19107" lon="6.2406">
        <ele>1806</ele>
        <time>2020-06-10T19:51:47+02:00</time>
      </trkpt>
      <trkpt lat="45.19133" lon="6.24064">
        <ele>1809</ele>
        <time>2020-06-10T19:51:52+02:00</time>
      </trkpt>
      <trkpt lat="45.19133" lon="6.24051">
        <ele>1814</ele>
        <time>2020-06-10T19:51:57+02:00</time>
      </trkpt>
      <trkpt lat="45.19112" lon="6.24028">
        <ele>1823</ele>
        <time>2020-06-10T19:52:02+02:00</time>
      </trkpt>
      <trkpt lat="45.19095" lon="6.24025">
        <ele>1823</ele>
        <time>2020-06-10T19:52:07+02:00</time>
      </trkpt>
      <trkpt lat="45.19066" lon="6.23999">
        <ele>1830</ele>
        <time>2020-06-10T19:52:12+02:00</time>
      </trkpt>
      <trkpt lat="45.19057" lon="6.2396">
        <ele>1838</ele>
        <time>2020-06-10T19:52:17+02:00</time>
      </trkpt>
      <trkpt lat="45.19066" lon="6.23943">
        <ele>1843</ele>
        <time>2020-06-10T19:52:22+02:00</time>
      </trkpt>
      <trkpt lat="45.19105" lon="6.23951">
        <ele>1850</ele>
        <time>2020-06-10T19:52:27+02:00</time>
      </trkpt>
      <trkpt lat="45.19099" lon="6.23924">
        <ele>1857</ele>
        <time>2020-06-10T19:52:32+02:00</time>
      </trkpt>
      <trkpt lat="45.19078" lon="6.23896">
        <ele>1862</ele>
        <time>2020-06-10T19:52:37+02:00</time>
      </trkpt>
      <trkpt lat="45.1903" lon="6.23842">
        <ele>1874</ele>
        <time>2020-06-10T19:52:42+02:00</time>
      </trkpt>
      <trkpt lat="45.19011" lon="6.23815">
        <ele>1879</ele>
        <time>2020-06-10T19:52:47+02:00</time>
      </trkpt>
      <trkpt lat="45.18975" lon="6.23783">
        <ele>1885</ele>
        <time>2020-06-10T19:52:52+02:00</time>
      </trkpt>
      <trkpt lat="45.18942" lon="6.23773">
        <ele>1889</ele>
        <time>2020-06-10T19:52:57+02:00</time>
      </trkpt>
      <trkpt lat="45.18924" lon="6.23768">
        <ele>1892</ele>
        <time>2020-06-10T19:53:02+02:00</time>
      </trkpt>
      <trkpt lat="45.18905" lon="6.23758">
        <ele>1896</ele>
        <time>2020-06-10T19:53:07+02:00</time>
      </trkpt>
      <trkpt lat="45.18878" lon="6.23758">
        <ele>1898</ele>
        <time>2020-06-10T19:53:12+02:00</time>
      </trkpt>
      <trkpt lat="45.18848" lon="6.23736">
        <ele>1905</ele>
        <time>2020-06-10T19:53:17+02:00</time>
      </trkpt>
      <trkpt lat="45.1874" lon="6.23611">
        <ele>1932</ele>
        <time>2020-06-10T19:53:22+02:00</time>
      </trkpt>
      <trkpt lat="45.18734" lon="6.23604">
        <ele>1934</ele>
        <time>2020-06-10T19:53:27+02:00</time>
      </trkpt>
      <trkpt lat="45.18657" lon="6.23572">
        <ele>1944</ele>
        <time>2020-06-10T19:53:32+02:00</time>
      </trkpt>
      <trkpt lat="45.18646" lon="6.23556">
        <ele>1947</ele>
        <time>2020-06-10T19:53:37+02:00</time>
      </trkpt>
      <trkpt lat="45.18601" lon="6.23512">
        <ele>1957</ele>
        <time>2020-06-10T19:53:42+02:00</time>
      </trkpt>
      <trkpt lat="45.18576" lon="6.23478">
        <ele>1962</ele>
        <time>2020-06-10T19:53:47+02:00</time>
      </trkpt>
      <trkpt lat="45.18556" lon="6.23417">
        <ele>1968</ele>
        <time>2020-06-10T19:53:52+02:00</time>
      </trkpt>
      <trkpt lat="45.18531" lon="6.23408">
        <ele>1973</ele>
        <time>2020-06-10T19:53:57+02:00</time>
      </trkpt>
      <trkpt lat="45.18515" lon="6.23409">
        <ele>1973</ele>
        <time>2020-06-10T19:54:02+02:00</time>
      </trkpt>
      <trkpt lat="45.18489" lon="6.23389">
        <ele>1979</ele>
        <time>2020-06-10T19:54:07+02:00</time>
      </trkpt>
      <trkpt lat="45.18472" lon="6.23388">
        <ele>1979</ele>
        <time>2020-06-10T19:54:12+02:00</time>
      </trkpt>
      <trkpt lat="45.18449" lon="6.23382">
        <ele>1982</ele>
        <time>2020-06-10T19:54:17+02:00</time>
      </trkpt>
      <trkpt lat="45.18401" lon="6.23329">
        <ele>1992</ele>
        <time>2020-06-10T19:54:22+02:00</time>
      </trkpt>
      <trkpt lat="45.18389" lon="6.23311">
        <ele>1994</ele>
        <time>2020-06-10T19:54:27+02:00</time>
      </trkpt>
      <trkpt lat="45.18357" lon="6.23298">
        <ele>1999</ele>
        <time>2020-06-10T19:54:32+02:00</time>
      </trkpt>
      <trkpt lat="45.18323" lon="6.23278">
        <ele>2004</ele>
        <time>2020-06-10T19:54:37+02:00</time>
      </trkpt>
      <trkpt lat="45.18285" lon="6.23257">
        <ele>2008</ele>
        <time>2020-06-10T19:54:42+02:00</time>
      </trkpt>
      <trkpt lat="45.18211" lon="6.23184">
        <ele>2014</ele>
        <time>2020-06-10T19:54:47+02:00</time>
      </trkpt>
      <trkpt lat="45.1817" lon="6.23114">
        <ele>2019</ele>
        <time>2020-06-10T19:54:52+02:00</time>
      </trkpt>
      <trkpt lat="45.18135" lon="6.23067">
        <ele>2019</ele>
        <time>2020-06-10T19:54:57+02:00</time>
      </trkpt>
      <trkpt lat="45.18069" lon="6.23008">
        <ele>2014</ele>
        <time>2020-06-10T19:55:02+02:00</time>
      </trkpt>
      <trkpt lat="45.18057" lon="6.22993">
        <ele>2007</ele>
        <time>2020-06-10T19:55:07+02:00</time>
      </trkpt>
      <trkpt lat="45.18009" lon="6.2297">
        <ele>2008</ele>
        <time>2020-06-10T19:55:12+02:00</time>
      </trkpt>
      <trkpt lat="45.17972" lon="6.22941">
        <ele>2003</ele>
        <time>2020-06-10T19:55:17+02:00</time>
      </trkpt>
      <trkpt lat="45.17902" lon="6.22905">
        <ele>1994</ele>
        <time>2020-06-10T19:55:22+02:00</time>
      </trkpt>
      <trkpt lat="45.17847" lon="6.22882">
        <ele>1984</ele>
        <time>2020-06-10T19:55:27+02:00</time>
      </trkpt>
      <trkpt lat="45.17831" lon="6.2288">
        <ele>1984</ele>
        <time>2020-06-10T19:55:32+02:00</time>
      </trkpt>
      <trkpt lat="45.17817" lon="6.2287">
        <ele>1979</ele>
        <time>2020-06-10T19:55:37+02:00</time>
      </trkpt>
      <trkpt lat="45.1775" lon="6.22843">
        <ele>1963</ele>
        <time>2020-06-10T19:55:42+02:00</time>
      </trkpt>
      <trkpt lat="45.17725" lon="6.22836">
        <ele>1960</ele>
        <time>2020-06-10T19:55:47+02:00</time>
      </trkpt>
      <trkpt lat="45.17715" lon="6.22837">
        <ele>1962</ele>
        <time>2020-06-10T19:55:52+02:00</time>
      </trkpt>
      <trkpt lat="45.17708" lon="6.22831">
        <ele>1960</ele>
        <time>2020-06-10T19:55:57+02:00</time>
      </trkpt>
      <trkpt lat="45.17702" lon="6.22818">
        <ele>1955</ele>
        <time>2020-06-10T19:56:02+02:00</time>
      </trkpt>
      <trkpt lat="45.17671" lon="6.22797">
        <ele>1947</ele>
        <time>2020-06-10T19:56:07+02:00</time>
      </trkpt>
      <trkpt lat="45.17663" lon="6.22783">
        <ele>1942</ele>
        <time>2020-06-10T19:56:12+02:00</time>
      </trkpt>
      <trkpt lat="45.17644" lon="6.22778">
        <ele>1944</ele>
        <time>2020-06-10T19:56:17+02:00</time>
      </trkpt>
      <trkpt lat="45.17631" lon="6.22749">
        <ele>1939</ele>
        <time>2020-06-10T19:56:22+02:00</time>
      </trkpt>
      <trkpt lat="45.17616" lon="6.22714">
        <ele>1929</ele>
        <time>2020-06-10T19:56:27+02:00</time>
      </trkpt>
      <trkpt lat="45.17601" lon="6.22699">
        <ele>1924</ele>
        <time>2020-06-10T19:56:32+02:00</time>
      </trkpt>
      <trkpt lat="45.17576" lon="6.227">
        <ele>1928</ele>
        <time>2020-06-10T19:56:37+02:00</time>
      </trkpt>
      <trkpt lat="45.17573" lon="6.22687">
        <ele>1927</ele>
        <time>2020-06-10T19:56:42+02:00</time>
      </trkpt>
      <trkpt lat="45.17575" lon="6.22656">
        <ele>1922</ele>
        <time>2020-06-10T19:56:47+02:00</time>
      </trkpt>
      <trkpt lat="45.17569" lon="6.22639">
        <ele>1921</ele>
        <time>2020-06-10T19:56:52+02:00</time>
      </trkpt>
      <trkpt lat="45.17549" lon="6.22614">
        <ele>1918</ele>
        <time>2020-06-10T19:56:57+02:00</time>
      </trkpt>
      <trkpt lat="45.17533" lon="6.22601">
        <ele>1916</ele>
        <time>2020-06-10T19:57:02+02:00</time>
      </trkpt>
      <trkpt lat="45.17529" lon="6.22588">
        <ele>1913</ele>
        <time>2020-06-10T19:57:07+02:00</time>
      </trkpt>
      <trkpt lat="45.17502" lon="6.22577">
        <ele>1915</ele>
        <time>2020-06-10T19:57:12+02:00</time>
      </trkpt>
      <trkpt lat="45.17491" lon="6.22551">
        <ele>1914</ele>
        <time>2020-06-10T19:57:17+02:00</time>
      </trkpt>
      <trkpt lat="45.17488" lon="6.22523">
        <ele>1911</ele>
        <time>2020-06-10T19:57:22+02:00</time>
      </trkpt>
      <trkpt lat="45.17479" lon="6.22502">
        <ele>1909</ele>
        <time>2020-06-10T19:57:27+02:00</time>
      </trkpt>
      <trkpt lat="45.17448" lon="6.22481">
        <ele>1897</ele>
        <time>2020-06-10T19:57:32+02:00</time>
      </trkpt>
      <trkpt lat="45.17433" lon="6.22505">
        <ele>1901</ele>
        <time>2020-06-10T19:57:37+02:00</time>
      </trkpt>
      <trkpt lat="45.17407" lon="6.22517">
        <ele>1907</ele>
        <time>2020-06-10T19:57:42+02:00</time>
      </trkpt>
      <trkpt lat="45.17404" lon="6.22507">
        <ele>1906</ele>
        <time>2020-06-10T19:57:47+02:00</time>
      </trkpt>
      <trkpt lat="45.17404" lon="6.22491">
        <ele>1903</ele>
        <time>2020-06-10T19:57:52+02:00</time>
      </trkpt>
      <trkpt lat="45.1739" lon="6.22471">
        <ele>1905</ele>
        <time>2020-06-10T19:57:57+02:00</time>
      </trkpt>
      <trkpt lat="45.17379" lon="6.22422">
        <ele>1897</ele>
        <time>2020-06-10T19:58:02+02:00</time>
      </trkpt>
      <trkpt lat="45.17368" lon="6.22419">
        <ele>1897</ele>
        <time>2020-06-10T19:58:07+02:00</time>
      </trkpt>
      <trkpt lat="45.17353" lon="6.2242">
        <ele>1898</ele>
        <time>2020-06-10T19:58:12+02:00</time>
      </trkpt>
      <trkpt lat="45.1734" lon="6.22407">
        <ele>1896</ele>
        <time>2020-06-10T19:58:17+02:00</time>
      </trkpt>
      <trkpt lat="45.1733" lon="6.224">
        <ele>1895</ele>
        <time>2020-06-10T19:58:22+02:00</time>
      </trkpt>
      <trkpt lat="45.1724" lon="6.22364">
        <ele>1889</ele>
        <time>2020-06-10T19:58:27+02:00</time>
      </trkpt>
      <trkpt lat="45.17175" lon="6.22351">
        <ele>1881</ele>
        <time>2020-06-10T19:58:32+02:00</time>
      </trkpt>
      <trkpt lat="45.17128" lon="6.22356">
        <ele>1873</ele>
        <time>2020-06-10T19:58:37+02:00</time>
      </trkpt>
      <trkpt lat="45.171" lon="6.22366">
        <ele>1870</ele>
        <time>2020-06-10T19:58:42+02:00</time>
      </trkpt>
      <trkpt lat="45.17077" lon="6.22382">
        <ele>1874</ele>
        <time>2020-06-10T19:58:47+02:00</time>
      </trkpt>
      <trkpt lat="45.17049" lon="6.22361">
        <ele>1875</ele>
        <time>2020-06-10T19:58:52+02:00</time>
      </trkpt>
      <trkpt lat="45.17031" lon="6.22317">
        <ele>1872</ele>
        <time>2020-06-10T19:58:57+02:00</time>
      </trkpt>
      <trkpt lat="45.17014" lon="6.223">
        <ele>1869</ele>
        <time>2020-06-10T19:59:02+02:00</time>
      </trkpt>
      <trkpt lat="45.16994" lon="6.2229">
        <ele>1867</ele>
        <time>2020-06-10T19:59:07+02:00</time>
      </trkpt>
      <trkpt lat="45.16983" lon="6.22282">
        <ele>1867</ele>
        <time>2020-06-10T19:59:12+02:00</time>
      </trkpt>
      <trkpt lat="45.16958" lon="6.2224">
        <ele>1857</ele>
        <time>2020-06-10T19:59:17+02:00</time>
      </trkpt>
      <trkpt lat="45.16934" lon="6.2223">
        <ele>1851</ele>
        <time>2020-06-10T19:59:22+02:00</time>
      </trkpt>
      <trkpt lat="45.16919" lon="6.22231">
        <ele>1847</ele>
        <time>2020-06-10T19:59:27+02:00</time>
      </trkpt>
      <trkpt lat="45.16919" lon="6.22265">
        <ele>1849</ele>
        <time>2020-06-10T19:59:32+02:00</time>
      </trkpt>
      <trkpt lat="45.16905" lon="6.22248">
        <ele>1843</ele>
        <time>2020-06-10T19:59:37+02:00</time>
      </trkpt>
      <trkpt lat="45.16893" lon="6.22188">
        <ele>1832</ele>
        <time>2020-06-10T19:59:42+02:00</time>
      </trkpt>
      <trkpt lat="45.16887" lon="6.22159">
        <ele>1826</ele>
        <time>2020-06-10T19:59:47+02:00</time>
      </trkpt>
      <trkpt lat="45.1689" lon="6.22148">
        <ele>1824</ele>
        <time>2020-06-10T19:59:52+02:00</time>
      </trkpt>
      <trkpt lat="45.16906" lon="6.22128">
        <ele>1824</ele>
        <time>2020-06-10T19:59:57+02:00</time>
      </trkpt>
      <trkpt lat="45.16952" lon="6.22101">
        <ele>1823</ele>
        <time>2020-06-10T20:00:02+02:00</time>
      </trkpt>
      <trkpt lat="45.16968" lon="6.22098">
        <ele>1822</ele>
        <time>2020-06-10T20:00:07+02:00</time>
      </trkpt>
      <trkpt lat="45.16983" lon="6.22108">
        <ele>1825</ele>
        <time>2020-06-10T20:00:12+02:00</time>
      </trkpt>
      <trkpt lat="45.17001" lon="6.22091">
        <ele>1819</ele>
        <time>2020-06-10T20:00:17+02:00</time>
      </trkpt>
      <trkpt lat="45.17056" lon="6.22064">
        <ele>1809</ele>
        <time>2020-06-10T20:00:22+02:00</time>
      </trkpt>
      <trkpt lat="45.17045" lon="6.22041">
        <ele>1803</ele>
        <time>2020-06-10T20:00:27+02:00</time>
      </trkpt>
      <trkpt lat="45.17039" lon="6.2203">
        <ele>1800</ele>
        <time>2020-06-10T20:00:32+02:00</time>
      </trkpt>
      <trkpt lat="45.17034" lon="6.22025">
        <ele>1799</ele>
        <time>2020-06-10T20:00:37+02:00</time>
      </trkpt>
      <trkpt lat="45.17043" lon="6.22016">
        <ele>1797</ele>
        <time>2020-06-10T20:00:42+02:00</time>
      </trkpt>
      <trkpt lat="45.17048" lon="6.22007">
        <ele>1795</ele>
        <time>2020-06-10T20:00:47+02:00</time>
      </trkpt>
      <trkpt lat="45.17064" lon="6.22005">
        <ele>1792</ele>
        <time>2020-06-10T20:00:52+02:00</time>
      </trkpt>
      <trkpt lat="45.17075" lon="6.22008">
        <ele>1791</ele>
        <time>2020-06-10T20:00:57+02:00</time>
      </trkpt>
      <trkpt lat="45.17079" lon="6.22026">
        <ele>1793</ele>
        <time>2020-06-10T20:01:02+02:00</time>
      </trkpt>
      <trkpt lat="45.17089" lon="6.22037">
        <ele>1794</ele>
        <time>2020-06-10T20:01:07+02:00</time>
      </trkpt>
      <trkpt lat="45.17104" lon="6.22005">
        <ele>1786</ele>
        <time>2020-06-10T20:01:12+02:00</time>
      </trkpt>
      <trkpt lat="45.1712" lon="6.21992">
        <ele>1784</ele>
        <time>2020-06-10T20:01:17+02:00</time>
      </trkpt>
      <trkpt lat="45.1716" lon="6.2199">
        <ele>1786</ele>
        <time>2020-06-10T20:01:22+02:00</time>
      </trkpt>
      <trkpt lat="45.17195" lon="6.21982">
        <ele>1783</ele>
        <time>2020-06-10T20:01:27+02:00</time>
      </trkpt>
      <trkpt lat="45.17227" lon="6.21963">
        <ele>1776</ele>
        <time>2020-06-10T20:01:32+02:00</time>
      </trkpt>
      <trkpt lat="45.17239" lon="6.21962">
        <ele>1774</ele>
        <time>2020-06-10T20:01:37+02:00</time>
      </trkpt>
      <trkpt lat="45.17275" lon="6.21962">
        <ele>1769</ele>
        <time>2020-06-10T20:01:42+02:00</time>
      </trkpt>
      <trkpt lat="45.17305" lon="6.21964">
        <ele>1764</ele>
        <time>2020-06-10T20:01:47+02:00</time>
      </trkpt>
      <trkpt lat="45.17327" lon="6.21964">
        <ele>1762</ele>
        <time>2020-06-10T20:01:52+02:00</time>
      </trkpt>
      <trkpt lat="45.17347" lon="6.21967">
        <ele>1760</ele>
        <time>2020-06-10T20:01:57+02:00</time>
      </trkpt>
      <trkpt lat="45.17355" lon="6.21984">
        <ele>1762</ele>
        <time>2020-06-10T20:02:02+02:00</time>
      </trkpt>
      <trkpt lat="45.17377" lon="6.21975">
        <ele>1756</ele>
        <time>2020-06-10T20:02:07+02:00</time>
      </trkpt>
      <trkpt lat="45.17401" lon="6.2199">
        <ele>1756</ele>
        <time>2020-06-10T20:02:12+02:00</time>
      </trkpt>
      <trkpt lat="45.17433" lon="6.21989">
        <ele>1749</ele>
        <time>2020-06-10T20:02:17+02:00</time>
      </trkpt>
      <trkpt lat="45.1746" lon="6.21994">
        <ele>1747</ele>
        <time>2020-06-10T20:02:22+02:00</time>
      </trkpt>
      <trkpt lat="45.17481" lon="6.22008">
        <ele>1746</ele>
        <time>2020-06-10T20:02:27+02:00</time>
      </trkpt>
      <trkpt lat="45.17495" lon="6.22035">
        <ele>1745</ele>
        <time>2020-06-10T20:02:32+02:00</time>
      </trkpt>
      <trkpt lat="45.17498" lon="6.22053">
        <ele>1743</ele>
        <time>2020-06-10T20:02:37+02:00</time>
      </trkpt>
      <trkpt lat="45.17496" lon="6.22079">
        <ele>1747</ele>
        <time>2020-06-10T20:02:42+02:00</time>
      </trkpt>
      <trkpt lat="45.17502" lon="6.22082">
        <ele>1744</ele>
        <time>2020-06-10T20:02:47+02:00</time>
      </trkpt>
      <trkpt lat="45.17511" lon="6.22073">
        <ele>1741</ele>
        <time>2020-06-10T20:02:52+02:00</time>
      </trkpt>
      <trkpt lat="45.17529" lon="6.22079">
        <ele>1738</ele>
        <time>2020-06-10T20:02:57+02:00</time>
      </trkpt>
      <trkpt lat="45.17539" lon="6.2208">
        <ele>1738</ele>
        <time>2020-06-10T20:03:02+02:00</time>
      </trkpt>
      <trkpt lat="45.17551" lon="6.22085">
        <ele>1739</ele>
        <time>2020-06-10T20:03:07+02:00</time>
      </trkpt>
      <trkpt lat="45.17566" lon="6.22102">
        <ele>1741</ele>
        <time>2020-06-10T20:03:12+02:00</time>
      </trkpt>
      <trkpt lat="45.17582" lon="6.22123">
        <ele>1742</ele>
        <time>2020-06-10T20:03:17+02:00</time>
      </trkpt>
      <trkpt lat="45.17596" lon="6.22133">
        <ele>1740</ele>
        <time>2020-06-10T20:03:22+02:00</time>
      </trkpt>
      <trkpt lat="45.17616" lon="6.22128">
        <ele>1735</ele>
        <time>2020-06-10T20:03:27+02:00</time>
      </trkpt>
      <trkpt lat="45.17626" lon="6.22141">
        <ele>1739</ele>
        <time>2020-06-10T20:03:32+02:00</time>
      </trkpt>
      <trkpt lat="45.17643" lon="6.2215">
        <ele>1741</ele>
        <time>2020-06-10T20:03:37+02:00</time>
      </trkpt>
      <trkpt lat="45.17654" lon="6.22153">
        <ele>1742</ele>
        <time>2020-06-10T20:03:42+02:00</time>
      </trkpt>
      <trkpt lat="45.17665" lon="6.22142">
        <ele>1740</ele>
        <time>2020-06-10T20:03:47+02:00</time>
      </trkpt>
      <trkpt lat="45.17677" lon="6.22129">
        <ele>1738</ele>
        <time>2020-06-10T20:03:52+02:00</time>
      </trkpt>
      <trkpt lat="45.17692" lon="6.22125">
        <ele>1740</ele>
        <time>2020-06-10T20:03:57+02:00</time>
      </trkpt>
      <trkpt lat="45.17701" lon="6.22126">
        <ele>1741</ele>
        <time>2020-06-10T20:04:02+02:00</time>
      </trkpt>
      <trkpt lat="45.17727" lon="6.22117">
        <ele>1743</ele>
        <time>2020-06-10T20:04:07+02:00</time>
      </trkpt>
      <trkpt lat="45.1774" lon="6.22117">
        <ele>1744</ele>
        <time>2020-06-10T20:04:12+02:00</time>
      </trkpt>
      <trkpt lat="45.17751" lon="6.2214">
        <ele>1750</ele>
        <time>2020-06-10T20:04:17+02:00</time>
      </trkpt>
      <trkpt lat="45.17765" lon="6.22146">
        <ele>1749</ele>
        <time>2020-06-10T20:04:22+02:00</time>
      </trkpt>
      <trkpt lat="45.17765" lon="6.22164">
        <ele>1751</ele>
        <time>2020-06-10T20:04:27+02:00</time>
      </trkpt>
      <trkpt lat="45.17775" lon="6.22175">
        <ele>1750</ele>
        <time>2020-06-10T20:04:32+02:00</time>
      </trkpt>
      <trkpt lat="45.17778" lon="6.22189">
        <ele>1751</ele>
        <time>2020-06-10T20:04:37+02:00</time>
      </trkpt>
      <trkpt lat="45.17802" lon="6.22225">
        <ele>1750</ele>
        <time>2020-06-10T20:04:42+02:00</time>
      </trkpt>
      <trkpt lat="45.17812" lon="6.22237">
        <ele>1749</ele>
        <time>2020-06-10T20:04:47+02:00</time>
      </trkpt>
      <trkpt lat="45.17836" lon="6.22236">
        <ele>1740</ele>
        <time>2020-06-10T20:04:52+02:00</time>
      </trkpt>
      <trkpt lat="45.17852" lon="6.22236">
        <ele>1738</ele>
        <time>2020-06-10T20:04:57+02:00</time>
      </trkpt>
      <trkpt lat="45.17859" lon="6.22224">
        <ele>1735</ele>
        <time>2020-06-10T20:05:02+02:00</time>
      </trkpt>
      <trkpt lat="45.1787" lon="6.22185">
        <ele>1734</ele>
        <time>2020-06-10T20:05:07+02:00</time>
      </trkpt>
      <trkpt lat="45.1788" lon="6.22177">
        <ele>1737</ele>
        <time>2020-06-10T20:05:12+02:00</time>
      </trkpt>
      <trkpt lat="45.17898" lon="6.22182">
        <ele>1740</ele>
        <time>2020-06-10T20:05:17+02:00</time>
      </trkpt>
      <trkpt lat="45.17911" lon="6.22216">
        <ele>1741</ele>
        <time>2020-06-10T20:05:22+02:00</time>
      </trkpt>
      <trkpt lat="45.17915" lon="6.22233">
        <ele>1742</ele>
        <time>2020-06-10T20:05:27+02:00</time>
      </trkpt>
      <trkpt lat="45.17932" lon="6.22245">
        <ele>1740</ele>
        <time>2020-06-10T20:05:32+02:00</time>
      </trkpt>
      <trkpt lat="45.17948" lon="6.22245">
        <ele>1737</ele>
        <time>2020-06-10T20:05:37+02:00</time>
      </trkpt>
      <trkpt lat="45.1796" lon="6.22274">
        <ele>1741</ele>
        <time>2020-06-10T20:05:42+02:00</time>
      </trkpt>
      <trkpt lat="45.17972" lon="6.22284">
        <ele>1738</ele>
        <time>2020-06-10T20:05:47+02:00</time>
      </trkpt>
      <trkpt lat="45.17982" lon="6.22287">
        <ele>1739</ele>
        <time>2020-06-10T20:05:52+02:00</time>
      </trkpt>
      <trkpt lat="45.17987" lon="6.22299">
        <ele>1740</ele>
        <time>2020-06-10T20:05:57+02:00</time>
      </trkpt>
      <trkpt lat="45.17999" lon="6.22316">
        <ele>1744</ele>
        <time>2020-06-10T20:06:02+02:00</time>
      </trkpt>
      <trkpt lat="45.18014" lon="6.22324">
        <ele>1743</ele>
        <time>2020-06-10T20:06:07+02:00</time>
      </trkpt>
      <trkpt lat="45.18028" lon="6.22335">
        <ele>1742</ele>
        <time>2020-06-10T20:06:12+02:00</time>
      </trkpt>
      <trkpt lat="45.18039" lon="6.22359">
        <ele>1744</ele>
        <time>2020-06-10T20:06:17+02:00</time>
      </trkpt>
      <trkpt lat="45.18083" lon="6.22377">
        <ele>1744</ele>
        <time>2020-06-10T20:06:22+02:00</time>
      </trkpt>
      <trkpt lat="45.18096" lon="6.22369">
        <ele>1744</ele>
        <time>2020-06-10T20:06:27+02:00</time>
      </trkpt>
      <trkpt lat="45.181" lon="6.22347">
        <ele>1740</ele>
        <time>2020-06-10T20:06:32+02:00</time>
      </trkpt>
      <trkpt lat="45.1812" lon="6.22322">
        <ele>1737</ele>
        <time>2020-06-10T20:06:37+02:00</time>
      </trkpt>
      <trkpt lat="45.1815" lon="6.22298">
        <ele>1734</ele>
        <time>2020-06-10T20:06:42+02:00</time>
      </trkpt>
      <trkpt lat="45.18171" lon="6.22289">
        <ele>1733</ele>
        <time>2020-06-10T20:06:47+02:00</time>
      </trkpt>
      <trkpt lat="45.18212" lon="6.22277">
        <ele>1731</ele>
        <time>2020-06-10T20:06:52+02:00</time>
      </trkpt>
      <trkpt lat="45.18224" lon="6.22273">
        <ele>1732</ele>
        <time>2020-06-10T20:06:57+02:00</time>
      </trkpt>
      <trkpt lat="45.18252" lon="6.22286">
        <ele>1725</ele>
        <time>2020-06-10T20:07:02+02:00</time>
      </trkpt>
      <trkpt lat="45.18269" lon="6.2228">
        <ele>1722</ele>
        <time>2020-06-10T20:07:07+02:00</time>
      </trkpt>
      <trkpt lat="45.18311" lon="6.22278">
        <ele>1717</ele>
        <time>2020-06-10T20:07:12+02:00</time>
      </trkpt>
      <trkpt lat="45.18339" lon="6.22252">
        <ele>1707</ele>
        <time>2020-06-10T20:07:17+02:00</time>
      </trkpt>
      <trkpt lat="45.18359" lon="6.22227">
        <ele>1696</ele>
        <time>2020-06-10T20:07:22+02:00</time>
      </trkpt>
      <trkpt lat="45.18368" lon="6.22216">
        <ele>1692</ele>
        <time>2020-06-10T20:07:27+02:00</time>
      </trkpt>
      <trkpt lat="45.18412" lon="6.22211">
        <ele>1676</ele>
        <time>2020-06-10T20:07:32+02:00</time>
      </trkpt>
      <trkpt lat="45.18453" lon="6.22197">
        <ele>1662</ele>
        <time>2020-06-10T20:07:37+02:00</time>
      </trkpt>
      <trkpt lat="45.18484" lon="6.2218">
        <ele>1651</ele>
        <time>2020-06-10T20:07:42+02:00</time>
      </trkpt>
      <trkpt lat="45.18527" lon="6.22197">
        <ele>1644</ele>
        <time>2020-06-10T20:07:47+02:00</time>
      </trkpt>
      <trkpt lat="45.18566" lon="6.22227">
        <ele>1642</ele>
        <time>2020-06-10T20:07:52+02:00</time>
      </trkpt>
      <trkpt lat="45.18597" lon="6.22248">
        <ele>1638</ele>
        <time>2020-06-10T20:07:57+02:00</time>
      </trkpt>
      <trkpt lat="45.18636" lon="6.22297">
        <ele>1635</ele>
        <time>2020-06-10T20:08:02+02:00</time>
      </trkpt>
      <trkpt lat="45.18681" lon="6.22322">
        <ele>1632</ele>
        <time>2020-06-10T20:08:07+02:00</time>
      </trkpt>
      <trkpt lat="45.18694" lon="6.22341">
        <ele>1631</ele>
        <time>2020-06-10T20:08:12+02:00</time>
      </trkpt>
      <trkpt lat="45.1875" lon="6.22365">
        <ele>1627</ele>
        <time>2020-06-10T20:08:17+02:00</time>
      </trkpt>
      <trkpt lat="45.1879" lon="6.22394">
        <ele>1626</ele>
        <time>2020-06-10T20:08:22+02:00</time>
      </trkpt>
      <trkpt lat="45.18836" lon="6.22401">
        <ele>1625</ele>
        <time>2020-06-10T20:08:27+02:00</time>
      </trkpt>
      <trkpt lat="45.18867" lon="6.22418">
        <ele>1623</ele>
        <time>2020-06-10T20:08:32+02:00</time>
      </trkpt>
      <trkpt lat="45.18974" lon="6.22409">
        <ele>1617</ele>
        <time>2020-06-10T20:08:37+02:00</time>
      </trkpt>
      <trkpt lat="45.19005" lon="6.22353">
        <ele>1612</ele>
        <time>2020-06-10T20:08:42+02:00</time>
      </trkpt>
      <trkpt lat="45.19029" lon="6.22346">
        <ele>1610</ele>
        <time>2020-06-10T20:08:47+02:00</time>
      </trkpt>
      <trkpt lat="45.19063" lon="6.22363">
        <ele>1610</ele>
        <time>2020-06-10T20:08:52+02:00</time>
      </trkpt>
      <trkpt lat="45.19084" lon="6.22337">
        <ele>1609</ele>
        <time>2020-06-10T20:08:57+02:00</time>
      </trkpt>
      <trkpt lat="45.19119" lon="6.22325">
        <ele>1609</ele>
        <time>2020-06-10T20:09:02+02:00</time>
      </trkpt>
      <trkpt lat="45.19165" lon="6.2233">
        <ele>1605</ele>
        <time>2020-06-10T20:09:07+02:00</time>
      </trkpt>
      <trkpt lat="45.19189" lon="6.22341">
        <ele>1602</ele>
        <time>2020-06-10T20:09:12+02:00</time>
      </trkpt>
      <trkpt lat="45.19226" lon="6.2236">
        <ele>1600</ele>
        <time>2020-06-10T20:09:17+02:00</time>
      </trkpt>
      <trkpt lat="45.1926" lon="6.22364">
        <ele>1600</ele>
        <time>2020-06-10T20:09:22+02:00</time>
      </trkpt>
      <trkpt lat="45.19318" lon="6.22364">
        <ele>1598</ele>
        <time>2020-06-10T20:09:27+02:00</time>
      </trkpt>
      <trkpt lat="45.19328" lon="6.22351">
        <ele>1599</ele>
        <time>2020-06-10T20:09:32+02:00</time>
      </trkpt>
      <trkpt lat="45.19343" lon="6.22312">
        <ele>1600</ele>
        <time>2020-06-10T20:09:37+02:00</time>
      </trkpt>
      <trkpt lat="45.19347" lon="6.22269">
        <ele>1599</ele>
        <time>2020-06-10T20:09:42+02:00</time>
      </trkpt>
      <trkpt lat="45.1937" lon="6.22258">
        <ele>1598</ele>
        <time>2020-06-10T20:09:47+02:00</time>
      </trkpt>
      <trkpt lat="45.19352" lon="6.2219">
        <ele>1599</ele>
        <time>2020-06-10T20:09:52+02:00</time>
      </trkpt>
      <trkpt lat="45.19362" lon="6.22172">
        <ele>1600</ele>
        <time>2020-06-10T20:09:57+02:00</time>
      </trkpt>
      <trkpt lat="45.19381" lon="6.22168">
        <ele>1601</ele>
        <time>2020-06-10T20:10:02+02:00</time>
      </trkpt>
      <trkpt lat="45.19404" lon="6.22199">
        <ele>1605</ele>
        <time>2020-06-10T20:10:07+02:00</time>
      </trkpt>
      <trkpt lat="45.19476" lon="6.22301">
        <ele>1610</ele>
        <time>2020-06-10T20:10:12+02:00</time>
      </trkpt>
      <trkpt lat="45.19495" lon="6.2232">
        <ele>1612</ele>
        <time>2020-06-10T20:10:17+02:00</time>
      </trkpt>
      <trkpt lat="45.19515" lon="6.22354">
        <ele>1609</ele>
        <time>2020-06-10T20:10:22+02:00</time>
      </trkpt>
      <trkpt lat="45.19615" lon="6.22437">
        <ele>1617</ele>
        <time>2020-06-10T20:10:27+02:00</time>
      </trkpt>
      <trkpt lat="45.19642" lon="6.22472">
        <ele>1617</ele>
        <time>2020-06-10T20:10:32+02:00</time>
      </trkpt>
      <trkpt lat="45.19656" lon="6.22491">
        <ele>1618</ele>
        <time>2020-06-10T20:10:37+02:00</time>
      </trkpt>
      <trkpt lat="45.19714" lon="6.22515">
        <ele>1621</ele>
        <time>2020-06-10T20:10:42+02:00</time>
      </trkpt>
      <trkpt lat="45.19742" lon="6.22521">
        <ele>1623</ele>
        <time>2020-06-10T20:10:47+02:00</time>
      </trkpt>
      <trkpt lat="45.19818" lon="6.2256">
        <ele>1625</ele>
        <time>2020-06-10T20:10:52+02:00</time>
      </trkpt>
      <trkpt lat="45.19901" lon="6.22628">
        <ele>1629</ele>
        <time>2020-06-10T20:10:57+02:00</time>
      </trkpt>
      <trkpt lat="45.19939" lon="6.22653">
        <ele>1629</ele>
        <time>2020-06-10T20:11:02+02:00</time>
      </trkpt>
      <trkpt lat="45.20024" lon="6.22674">
        <ele>1638</ele>
        <time>2020-06-10T20:11:07+02:00</time>
      </trkpt>
      <trkpt lat="45.20045" lon="6.22674">
        <ele>1638</ele>
        <time>2020-06-10T20:11:12+02:00</time>
      </trkpt>
      <trkpt lat="45.20088" lon="6.22704">
        <ele>1635</ele>
        <time>2020-06-10T20:11:17+02:00</time>
      </trkpt>
      <trkpt lat="45.20114" lon="6.22715">
        <ele>1633</ele>
        <time>2020-06-10T20:11:22+02:00</time>
      </trkpt>
      <trkpt lat="45.20138" lon="6.22725">
        <ele>1632</ele>
        <time>2020-06-10T20:11:27+02:00</time>
      </trkpt>
      <trkpt lat="45.20173" lon="6.22749">
        <ele>1630</ele>
        <time>2020-06-10T20:11:32+02:00</time>
      </trkpt>
      <trkpt lat="45.20196" lon="6.22748">
        <ele>1631</ele>
        <time>2020-06-10T20:11:37+02:00</time>
      </trkpt>
      <trkpt lat="45.20212" lon="6.22746">
        <ele>1633</ele>
        <time>2020-06-10T20:11:42+02:00</time>
      </trkpt>
      <trkpt lat="45.20254" lon="6.22759">
        <ele>1631</ele>
        <time>2020-06-10T20:11:47+02:00</time>
      </trkpt>
      <trkpt lat="45.20295" lon="6.22759">
        <ele>1630</ele>
        <time>2020-06-10T20:11:52+02:00</time>
      </trkpt>
      <trkpt lat="45.20325" lon="6.22747">
        <ele>1630</ele>
        <time>2020-06-10T20:11:57+02:00</time>
      </trkpt>
      <trkpt lat="45.20341" lon="6.227">
        <ele>1640</ele>
        <time>2020-06-10T20:12:02+02:00</time>
      </trkpt>
      <trkpt lat="45.20386" lon="6.22703">
        <ele>1640</ele>
        <time>2020-06-10T20:12:07+02:00</time>
      </trkpt>
      <trkpt lat="45.20416" lon="6.22686">
        <ele>1643</ele>
        <time>2020-06-10T20:12:12+02:00</time>
      </trkpt>
      <trkpt lat="45.20435" lon="6.22699">
        <ele>1641</ele>
        <time>2020-06-10T20:12:17+02:00</time>
      </trkpt>
      <trkpt lat="45.20504" lon="6.22728">
        <ele>1641</ele>
        <time>2020-06-10T20:12:22+02:00</time>
      </trkpt>
      <trkpt lat="45.20529" lon="6.22721">
        <ele>1644</ele>
        <time>2020-06-10T20:12:27+02:00</time>
      </trkpt>
      <trkpt lat="45.20559" lon="6.22714">
        <ele>1644</ele>
        <time>2020-06-10T20:12:32+02:00</time>
      </trkpt>
      <trkpt lat="45.20595" lon="6.22718">
        <ele>1641</ele>
        <time>2020-06-10T20:12:37+02:00</time>
      </trkpt>
      <trkpt lat="45.20676" lon="6.22702">
        <ele>1646</ele>
        <time>2020-06-10T20:12:42+02:00</time>
      </trkpt>
      <trkpt lat="45.207" lon="6.22691">
        <ele>1647</ele>
        <time>2020-06-10T20:12:47+02:00</time>
      </trkpt>
      <trkpt lat="45.20746" lon="6.22701">
        <ele>1643</ele>
        <time>2020-06-10T20:12:52+02:00</time>
      </trkpt>
      <trkpt lat="45.20778" lon="6.22728">
        <ele>1638</ele>
        <time>2020-06-10T20:12:57+02:00</time>
      </trkpt>
      <trkpt lat="45.20845" lon="6.22715">
        <ele>1635</ele>
        <time>2020-06-10T20:13:02+02:00</time>
      </trkpt>
      <trkpt lat="45.20915" lon="6.22719">
        <ele>1633</ele>
        <time>2020-06-10T20:13:07+02:00</time>
      </trkpt>
      <trkpt lat="45.20955" lon="6.2272">
        <ele>1631</ele>
        <time>2020-06-10T20:13:12+02:00</time>
      </trkpt>
      <trkpt lat="45.20981" lon="6.22723">
        <ele>1626</ele>
        <time>2020-06-10T20:13:17+02:00</time>
      </trkpt>
      <trkpt lat="45.21009" lon="6.22708">
        <ele>1623</ele>
        <time>2020-06-10T20:13:22+02:00</time>
      </trkpt>
      <trkpt lat="45.21156" lon="6.22692">
        <ele>1594</ele>
        <time>2020-06-10T20:13:27+02:00</time>
      </trkpt>
      <trkpt lat="45.21256" lon="6.22736">
        <ele>1575</ele>
        <time>2020-06-10T20:13:32+02:00</time>
      </trkpt>
      <trkpt lat="45.21472" lon="6.2277">
        <ele>1561</ele>
        <time>2020-06-10T20:13:37+02:00</time>
      </trkpt>
      <trkpt lat="45.21534" lon="6.22827">
        <ele>1553</ele>
        <time>2020-06-10T20:13:42+02:00</time>
      </trkpt>
      <trkpt lat="45.21615" lon="6.22847">
        <ele>1539</ele>
        <time>2020-06-10T20:13:47+02:00</time>
      </trkpt>
      <trkpt lat="45.21717" lon="6.22773">
        <ele>1544</ele>
        <time>2020-06-10T20:13:52+02:00</time>
      </trkpt>
      <trkpt lat="45.21832" lon="6.22687">
        <ele>1534</ele>
        <time>2020-06-10T20:13:57+02:00</time>
      </trkpt>
      <trkpt lat="45.2185" lon="6.22694">
        <ele>1531</ele>
        <time>2020-06-10T20:14:02+02:00</time>
      </trkpt>
      <trkpt lat="45.21828" lon="6.22968">
        <ele>1490</ele>
        <time>2020-06-10T20:14:07+02:00</time>
      </trkpt>
      <trkpt lat="45.21881" lon="6.23183">
        <ele>1480</ele>
        <time>2020-06-10T20:14:12+02:00</time>
      </trkpt>
    </trkseg>
  </trk>
</gpx>